Observations for LONDON CITY AIRPORT, United Kingdom (EGLC)

EGLC 250320Z AUTO 24006KT 9999 NCD 02/01 Q1012  
EGLC 250250Z AUTO 21007KT 9999 NCD 03/01 Q1012  
EGLC 250220Z AUTO 24005KT 9999 NCD 03/01 Q1012  
EGLC 250150Z AUTO 22005KT 9999 NCD 03/01 Q1012  
EGLC 250120Z AUTO 22004KT 9999 NCD 03/01 Q1012  
EGLC 250050Z AUTO 23004KT 9999 NCD 03/01 Q1012  
EGLC 250020Z AUTO 22004KT 9999 NCD 03/01 Q1012  
EGLC 242350Z AUTO 22004KT 9999 NCD 04/01 Q1013  
EGLC 242320Z AUTO 21005KT 9999 NCD 04/01 Q1013  
EGLC 242250Z AUTO 23004KT 9999 NCD 04/01 Q1013  
EGLC 242220Z AUTO 22004KT 9999 NCD 04/02 Q1013  
EGLC 242150Z AUTO VRB03KT 9999 NCD 04/01 Q1013  
EGLC 242120Z AUTO 21004KT 9999 NCD 04/01 Q1013  
EGLC 242050Z AUTO 24005KT 210V330 9999 NCD 05/01 Q1013  
EGLC 242020Z AUTO 21004G15KT 140V310 9999 NCD 06/01 Q1013   
EGLC 241950Z AUTO VRB01KT 9999 NCD 05/01 Q1013  
EGLC 241920Z AUTO VRB02KT 9999 NCD 06/01 Q1013  
EGLC 241850Z AUTO 33003KT 9999 NCD 06/02 Q1013  
EGLC 241820Z AUTO VRB03KT 9999 NCD 07/01 Q1012  
EGLC 241750Z AUTO VRB02KT 9999 NCD 07/01 Q1012  
EGLC 241720Z AUTO VRB03KT 9999 NCD 07/01 Q1012  
EGLC 241650Z AUTO 35002KT 9999 NCD 07/01 Q1012  
EGLC 241620Z AUTO 34002KT 9999 NCD 08/01 Q1012  
EGLC 241550Z AUTO 35003KT 9999 NCD 08/01 Q1012  
EGLC 241520Z AUTO VRB02KT 9999 NCD 08/01 Q1012  
EGLC 241450Z AUTO 35003KT 9999 NCD 08/00 Q1012  
EGLC 241420Z AUTO VRB03KT 9999 NCD 08/01 Q1012  
EGLC 241350Z AUTO VRB02KT 9999 NCD 08/01 Q1012  
EGLC 241320Z AUTO VRB02KT 9999 NCD 09/01 Q1012  
EGLC 241250Z AUTO VRB01KT 9999 NCD 08/01 Q1012  
EGLC 241220Z AUTO VRB03KT 9999 NCD 08/00 Q1012  
EGLC 241150Z AUTO VRB02KT 9999 NCD 08/01 Q1012  
EGLC 241120Z AUTO VRB03KT 9999 NCD 08/01 Q1012  
EGLC 241050Z AUTO 01005KT 340V050 9999 NCD 08/01 Q1012  
EGLC 241020Z AUTO 33004KT 290V020 9999 NCD 08/02 Q1011  
EGLC 240950Z AUTO VRB03KT 9999 NCD 08/02 Q1011  
EGLC 240920Z AUTO 30005KT 270V350 9999 NCD 08/02 Q1010  
EGLC 240850Z AUTO 31005KT 250V020 9999 NCD 08/02 Q1010  
EGLC 240820Z AUTO 30006KT 9999 NCD 08/03 Q1010  
EGLC 240750Z AUTO 28005KT 220V310 9999 NCD 08/03 Q1009  
EGLC 240720Z AUTO 28006KT 260V320 9999 NCD 08/03 Q1009  
EGLC 240650Z AUTO 29006KT 9999 NCD 08/04 Q1009  
EGLC 240620Z AUTO 29007KT 9999 NCD 09/04 Q1008  
EGLC 240550Z AUTO 28005KT 9999 NCD 08/03 Q1008  
EGLC 240520Z AUTO 31006KT 9999 NCD 09/03 Q1007  
EGLC 240450Z AUTO 30007KT 9999 NCD 09/03 Q1007  
EGLC 240420Z AUTO 28007KT 9999 NCD 09/03 Q1007  
EGLC 240350Z AUTO 29005KT 9999 NCD 09/03 Q1006  
EGLC 240320Z AUTO 26006KT 9999 BKN036 09/03 Q1006   
EGLC 240250Z AUTO 24007KT 9999 SCT038 BKN048 09/03 Q1006